Time;durP1;ratioP1;P1;durP2;ratioP2;P2;SDS_P1;SDS_P2;PMS_P1;PMS_P2;Temp;Humidity;BMP_temperature;BMP_pressure;BME280_temperature;BME280_humidity;BME280_pressure;Samples;Min_cycle;Max_cycle;Signal;HPM_P1;HPM_P2
2022/02/25 00:00:09;;;;;;;7.40;1.70;;;1.20;99.90;;;;;;2098567;28;20210;-72
2022/02/25 00:01:10;;;;;;;2.73;0.90;;;1.20;99.90;;;;;;2098707;28;20187;-72
2022/02/25 00:02:10;;;;;;;1.70;0.97;;;1.20;99.90;;;;;;2098577;28;20199;-72
2022/02/25 00:03:13;;;;;;;2.37;0.80;;;1.10;99.90;;;;;;2098736;28;20195;-72
2022/02/25 00:04:13;;;;;;;1.77;0.80;;;1.20;99.90;;;;;;2098575;28;20195;-73
2022/02/25 00:05:14;;;;;;;2.83;1.10;;;1.20;99.90;;;;;;2096204;28;20558;-73
2022/02/25 00:06:16;;;;;;;1.60;0.90;;;1.20;99.90;;;;;;2090589;28;20204;-72
2022/02/25 00:07:17;;;;;;;3.13;0.82;;;1.10;99.90;;;;;;2090531;28;20656;-72
2022/02/25 00:08:17;;;;;;;1.13;0.73;;;1.10;99.90;;;;;;2090238;28;20314;-72
2022/02/25 00:09:18;;;;;;;0.80;0.60;;;1.10;99.90;;;;;;2090348;28;20276;-72
2022/02/25 00:10:19;;;;;;;0.80;0.80;;;1.00;99.90;;;;;;2090223;28;20184;-72
2022/02/25 00:11:19;;;;;;;1.90;0.60;;;0.90;99.90;;;;;;2090360;28;20180;-72
2022/02/25 00:12:20;;;;;;;1.17;0.70;;;0.90;99.90;;;;;;2090233;28;20177;-72
2022/02/25 00:13:21;;;;;;;0.70;0.60;;;0.90;99.90;;;;;;2090227;28;20176;-72
2022/02/25 00:14:21;;;;;;;1.60;0.63;;;0.90;99.90;;;;;;2090189;28;20659;-73
2022/02/25 00:15:22;;;;;;;1.70;0.60;;;0.80;99.90;;;;;;2089732;28;20769;-72
2022/02/25 00:16:22;;;;;;;0.70;0.60;;;0.80;99.90;;;;;;2090163;28;20180;-72
2022/02/25 00:17:23;;;;;;;1.63;0.77;;;0.80;99.90;;;;;;2090365;28;20178;-72
2022/02/25 00:18:25;;;;;;;0.87;0.50;;;0.80;99.90;;;;;;2090650;28;20217;-72
2022/02/25 00:19:26;;;;;;;0.50;0.50;;;0.80;99.90;;;;;;2096755;28;20242;-72
2022/02/25 00:20:27;;;;;;;0.40;0.40;;;0.70;99.90;;;;;;2097805;28;20172;-72
2022/02/25 00:21:28;;;;;;;0.50;0.40;;;0.80;99.90;;;;;;2098439;28;20239;-72
2022/02/25 00:22:28;;;;;;;0.87;0.70;;;0.80;99.90;;;;;;2098448;28;20164;-73
2022/02/25 00:23:29;;;;;;;0.77;0.50;;;0.90;99.90;;;;;;2098355;28;20630;-72
2022/02/25 00:24:29;;;;;;;0.83;0.50;;;0.80;99.90;;;;;;2098427;28;20643;-72
2022/02/25 00:25:30;;;;;;;0.53;0.50;;;0.80;99.90;;;;;;2097827;28;20164;-72
2022/02/25 00:26:30;;;;;;;0.50;0.50;;;0.90;99.90;;;;;;2098485;28;20936;-72
2022/02/25 00:27:31;;;;;;;0.67;0.50;;;0.90;99.90;;;;;;2098374;28;20213;-72
2022/02/25 00:28:32;;;;;;;0.90;0.60;;;0.90;99.90;;;;;;2098508;28;20225;-72
2022/02/25 00:29:32;;;;;;;0.63;0.60;;;1.00;99.90;;;;;;2098238;28;20171;-72
2022/02/25 00:30:33;;;;;;;1.80;0.50;;;0.90;99.90;;;;;;2098450;28;20167;-72
2022/02/25 00:31:34;;;;;;;0.37;0.37;;;0.80;99.90;;;;;;2098205;28;20172;-72
2022/02/25 00:32:35;;;;;;;0.70;0.60;;;0.80;99.90;;;;;;2098421;28;20168;-73
2022/02/25 00:33:36;;;;;;;1.65;0.52;;;1.00;99.90;;;;;;2098257;28;20164;-72
2022/02/25 00:34:36;;;;;;;0.83;0.40;;;0.90;99.90;;;;;;2098312;28;20172;-73
2022/02/25 00:35:37;;;;;;;0.33;0.33;;;1.00;99.90;;;;;;2097617;28;20643;-73
2022/02/25 00:36:38;;;;;;;0.30;0.30;;;1.00;99.90;;;;;;2098217;28;20615;-72
2022/02/25 00:37:38;;;;;;;1.47;0.60;;;1.00;99.90;;;;;;2097841;28;20541;-72
2022/02/25 00:38:39;;;;;;;3.40;0.50;;;0.90;99.90;;;;;;2097662;28;20307;-72
2022/02/25 00:39:39;;;;;;;0.37;0.20;;;0.90;99.90;;;;;;2097565;28;20287;-72
2022/02/25 00:40:40;;;;;;;0.40;0.40;;;0.90;99.90;;;;;;2098295;28;20225;-72
2022/02/25 00:41:40;;;;;;;0.80;0.80;;;1.00;99.90;;;;;;2098197;28;20172;-72
2022/02/25 00:42:41;;;;;;;0.70;0.50;;;0.90;99.90;;;;;;2098362;28;20272;-72
2022/02/25 00:43:41;;;;;;;0.70;0.60;;;0.90;99.90;;;;;;2098179;28;20262;-72
2022/02/25 00:44:42;;;;;;;0.50;0.50;;;1.00;99.90;;;;;;2098324;28;20176;-72
2022/02/25 00:45:43;;;;;;;1.50;0.60;;;1.00;99.90;;;;;;2097480;28;20297;-72
2022/02/25 00:46:44;;;;;;;1.48;0.80;;;1.00;99.90;;;;;;2098220;28;20195;-73
2022/02/25 00:47:44;;;;;;;1.00;0.90;;;1.00;99.90;;;;;;2098134;28;20188;-72
2022/02/25 00:48:45;;;;;;;0.70;0.70;;;0.90;99.90;;;;;;2098497;28;20548;-72
2022/02/25 00:49:46;;;;;;;1.03;0.90;;;0.80;99.90;;;;;;2098545;28;20175;-72
2022/02/25 00:50:46;;;;;;;1.20;0.77;;;0.90;99.90;;;;;;2097804;28;20183;-72
2022/02/25 00:51:47;;;;;;;2.67;1.00;;;0.90;99.90;;;;;;2097827;28;20353;-72
2022/02/25 00:52:47;;;;;;;1.07;0.97;;;0.90;99.90;;;;;;2098533;28;20864;-72
2022/02/25 00:53:48;;;;;;;5.37;1.20;;;0.90;99.90;;;;;;2098507;28;20266;-72
2022/02/25 00:54:49;;;;;;;1.27;0.93;;;0.80;99.90;;;;;;2098324;28;20221;-72
2022/02/25 00:55:49;;;;;;;1.13;0.83;;;0.80;99.90;;;;;;2097769;28;20421;-72
2022/02/25 00:56:50;;;;;;;1.57;1.10;;;0.70;99.90;;;;;;2098407;28;20200;-72
2022/02/25 00:57:51;;;;;;;3.57;2.03;;;0.70;99.90;;;;;;2098485;28;20183;-72
2022/02/25 00:58:55;;;;;;;2.23;1.07;;;0.70;99.90;;;;;;2098211;28;20179;-72
2022/02/25 00:59:55;;;;;;;1.63;0.85;;;0.70;99.90;;;;;;2098312;28;20176;-72
2022/02/25 01:00:56;;;;;;;2.77;1.13;;;0.70;99.90;;;;;;2098304;28;20203;-72
2022/02/25 01:01:56;;;;;;;0.80;0.80;;;0.70;99.90;;;;;;2097733;28;20184;-72
2022/02/25 01:02:57;;;;;;;1.03;0.70;;;0.70;99.90;;;;;;2097038;28;20180;-72
2022/02/25 01:03:58;;;;;;;1.97;0.80;;;0.70;99.90;;;;;;2097420;28;20697;-73
2022/02/25 01:05:00;;;;;;;4.53;1.40;;;0.70;99.90;;;;;;2097750;28;20285;-72
2022/02/25 01:06:01;;;;;;;1.90;1.00;;;0.70;99.90;;;;;;2097303;28;20179;-72
2022/02/25 01:07:01;;;;;;;5.03;1.13;;;0.80;99.90;;;;;;2089761;28;20200;-72
2022/02/25 01:08:07;;;;;;;2.50;1.00;;;0.70;99.90;;;;;;2097871;28;20268;-72
2022/02/25 01:09:08;;;;;;;2.63;0.95;;;0.60;99.90;;;;;;2098399;28;20554;-72
2022/02/25 01:10:11;;;;;;;1.70;1.15;;;0.60;99.90;;;;;;2098389;28;20201;-73
2022/02/25 01:11:12;;;;;;;0.98;0.90;;;0.60;99.90;;;;;;2098384;28;20580;-72
2022/02/25 01:12:13;;;;;;;1.77;1.00;;;0.70;99.90;;;;;;2098211;28;20187;-73
2022/02/25 01:13:13;;;;;;;2.10;1.20;;;0.70;99.90;;;;;;2097758;28;20939;-73
2022/02/25 01:14:14;;;;;;;1.07;0.97;;;0.80;99.90;;;;;;2097783;28;20267;-72
2022/02/25 01:15:16;;;;;;;3.20;1.00;;;0.80;99.90;;;;;;2097085;28;20194;-72
2022/02/25 01:16:17;;;;;;;2.00;1.00;;;0.70;99.90;;;;;;2081305;28;20746;-72
2022/02/25 01:17:17;;;;;;;2.50;1.07;;;0.70;99.90;;;;;;2089395;28;20185;-72
2022/02/25 01:18:18;;;;;;;2.33;1.20;;;0.60;99.90;;;;;;2098369;28;20211;-72
2022/02/25 01:19:18;;;;;;;1.37;1.00;;;0.60;99.90;;;;;;2097690;28;20179;-73
2022/02/25 01:20:19;;;;;;;2.23;0.90;;;0.50;99.90;;;;;;2097854;28;20164;-72
2022/02/25 01:21:20;;;;;;;1.20;0.90;;;0.40;99.90;;;;;;2098157;28;20164;-72
2022/02/25 01:22:21;;;;;;;1.90;1.13;;;0.30;99.90;;;;;;2098306;28;20171;-72
2022/02/25 01:23:21;;;;;;;1.00;0.90;;;0.30;99.90;;;;;;2097651;28;20168;-72
2022/02/25 01:24:22;;;;;;;1.97;1.27;;;0.30;99.90;;;;;;2097753;28;20638;-73
2022/02/25 01:25:23;;;;;;;6.50;1.30;;;0.30;99.90;;;;;;2097822;28;20190;-72
2022/02/25 01:26:24;;;;;;;4.57;0.93;;;0.30;99.90;;;;;;2097694;28;20172;-72
2022/02/25 01:27:25;;;;;;;3.65;1.10;;;0.30;99.90;;;;;;2097630;28;20168;-73
2022/02/25 01:28:26;;;;;;;6.60;1.33;;;0.30;99.90;;;;;;2098407;28;20199;-72
2022/02/25 01:29:27;;;;;;;3.35;1.38;;;0.30;99.90;;;;;;2098235;28;20672;-72
2022/02/25 01:30:28;;;;;;;3.07;1.23;;;0.40;99.90;;;;;;2097503;28;20191;-73
2022/02/25 01:31:29;;;;;;;2.50;1.27;;;0.40;99.90;;;;;;2097471;28;20172;-72
2022/02/25 01:32:29;;;;;;;2.75;1.10;;;0.40;99.90;;;;;;2097717;28;20172;-72
2022/02/25 01:33:30;;;;;;;1.70;0.97;;;0.40;99.90;;;;;;2089220;28;20200;-73
2022/02/25 01:34:31;;;;;;;2.30;1.30;;;0.30;99.90;;;;;;2097759;28;20688;-73
2022/02/25 01:35:33;;;;;;;1.83;1.00;;;0.40;99.90;;;;;;2097559;28;20262;-73
2022/02/25 01:36:33;;;;;;;3.55;1.25;;;0.40;99.90;;;;;;2098284;28;20198;-72
2022/02/25 01:37:34;;;;;;;3.13;1.40;;;0.30;99.90;;;;;;2098561;28;20179;-72
2022/02/25 01:38:35;;;;;;;1.50;0.87;;;0.30;99.90;;;;;;2097568;28;20215;-73
2022/02/25 01:39:36;;;;;;;1.93;1.00;;;0.30;99.90;;;;;;2089076;28;20678;-73
2022/02/25 01:40:36;;;;;;;2.10;1.10;;;0.40;99.90;;;;;;2089409;28;20603;-72
2022/02/25 01:41:37;;;;;;;1.47;1.20;;;0.40;99.90;;;;;;2089224;28;20165;-72
2022/02/25 01:42:49;;;;;;;3.70;1.17;;;0.40;99.90;;;;;;2097474;28;20176;-73
2022/02/25 01:43:49;;;;;;;1.73;0.98;;;0.40;99.90;;;;;;2089161;28;20191;-73
2022/02/25 01:44:50;;;;;;;2.37;0.97;;;0.40;99.90;;;;;;2089110;28;20191;-72
2022/02/25 01:45:51;;;;;;;6.30;1.42;;;0.40;99.90;;;;;;2096756;28;20189;-72
2022/02/25 01:46:56;;;;;;;3.67;1.10;;;0.40;99.90;;;;;;2089056;28;20291;-72
2022/02/25 01:47:56;;;;;;;4.05;1.27;;;0.40;99.90;;;;;;2097258;28;20971;-72
2022/02/25 01:48:57;;;;;;;2.80;1.40;;;0.40;99.90;;;;;;2097412;28;20172;-72
2022/02/25 01:49:58;;;;;;;4.60;1.20;;;0.40;99.90;;;;;;2080720;28;20181;-73
2022/02/25 01:50:59;;;;;;;4.73;1.23;;;0.50;99.90;;;;;;2088967;28;20230;-72
2022/02/25 01:52:03;;;;;;;3.08;1.02;;;0.40;99.90;;;;;;2097965;28;20179;-72
2022/02/25 01:53:07;;;;;;;2.25;1.13;;;0.50;99.90;;;;;;2098087;28;20195;-72
2022/02/25 01:54:08;;;;;;;4.18;1.23;;;0.50;99.90;;;;;;2097976;28;20172;-72
2022/02/25 01:55:09;;;;;;;2.45;1.23;;;0.40;99.90;;;;;;2097159;28;20309;-71
2022/02/25 01:56:10;;;;;;;3.33;1.10;;;0.50;99.90;;;;;;2097490;28;20217;-72
2022/02/25 01:57:15;;;;;;;3.47;1.40;;;0.50;99.90;;;;;;2097154;28;20211;-72
2022/02/25 01:58:15;;;;;;;2.95;1.33;;;0.50;99.90;;;;;;2105092;28;21047;-73
2022/02/25 01:59:16;;;;;;;2.57;1.47;;;0.40;99.90;;;;;;2097956;28;20176;-73
2022/02/25 02:00:17;;;;;;;2.87;1.37;;;0.40;99.90;;;;;;2097301;28;20645;-72
2022/02/25 02:01:18;;;;;;;1.50;1.30;;;0.40;99.90;;;;;;2095119;28;20239;-72
2022/02/25 02:02:18;;;;;;;5.53;1.50;;;0.40;99.90;;;;;;2089130;28;20726;-72
2022/02/25 02:03:19;;;;;;;1.73;1.23;;;0.40;99.90;;;;;;2080903;28;20682;-73
2022/02/25 02:04:21;;;;;;;3.08;1.30;;;0.50;99.90;;;;;;2089213;28;20175;-72
2022/02/25 02:05:24;;;;;;;5.97;1.50;;;0.50;99.90;;;;;;2088442;28;20184;-72
2022/02/25 02:06:25;;;;;;;1.23;1.05;;;0.50;99.90;;;;;;2081336;28;20908;-72
2022/02/25 02:07:26;;;;;;;5.33;1.40;;;0.50;99.90;;;;;;2089180;28;20180;-72
2022/02/25 02:08:26;;;;;;;4.13;1.87;;;0.50;99.90;;;;;;2089840;28;20200;-72
2022/02/25 02:09:27;;;;;;;3.87;1.10;;;0.50;99.90;;;;;;2089785;28;20172;-73
2022/02/25 02:10:28;;;;;;;2.95;1.00;;;0.40;99.90;;;;;;2089010;28;20176;-72
2022/02/25 02:12:00;;;;;;;3.17;1.50;;;0.50;99.90;;;;;;2080537;28;20169;-72
2022/02/25 02:13:01;;;;;;;1.95;1.52;;;0.50;99.90;;;;;;2083852;28;20180;-72
2022/02/25 02:14:07;;;;;;;3.60;1.20;;;0.50;99.90;;;;;;2097812;28;20817;-73
2022/02/25 02:15:08;;;;;;;2.00;1.10;;;0.50;99.90;;;;;;2096895;28;20179;-72
2022/02/25 02:16:09;;;;;;;4.72;1.60;;;0.50;99.90;;;;;;2088804;28;20234;-72
2022/02/25 02:17:10;;;;;;;1.77;1.00;;;0.60;99.90;;;;;;2097121;28;20294;-73
2022/02/25 02:18:10;;;;;;;3.67;1.30;;;0.60;99.90;;;;;;2105464;28;20218;-72
2022/02/25 02:19:12;;;;;;;2.00;1.10;;;0.60;99.90;;;;;;2097222;28;20168;-73
2022/02/25 02:20:12;;;;;;;3.83;1.35;;;0.60;99.90;;;;;;2088944;28;20169;-72
2022/02/25 02:21:13;;;;;;;1.40;1.00;;;0.60;99.90;;;;;;2097441;28;20180;-72
2022/02/25 02:22:15;;;;;;;6.73;1.27;;;0.60;99.90;;;;;;2097180;28;20168;-73
2022/02/25 02:23:16;;;;;;;6.15;2.00;;;0.60;99.90;;;;;;2089269;28;20661;-72
2022/02/25 02:24:18;;;;;;;2.10;1.30;;;0.60;99.90;;;;;;2088993;28;20184;-73
2022/02/25 02:25:19;;;;;;;3.15;1.38;;;0.60;99.90;;;;;;2096841;28;20175;-72
2022/02/25 02:26:20;;;;;;;5.10;1.27;;;0.70;99.90;;;;;;2105596;28;20167;-73
2022/02/25 02:27:21;;;;;;;2.85;1.10;;;0.70;99.90;;;;;;2098001;28;20233;-72
2022/02/25 02:28:23;;;;;;;4.83;1.47;;;0.70;99.90;;;;;;2097089;28;20180;-72
2022/02/25 02:29:25;;;;;;;1.85;1.42;;;0.60;99.90;;;;;;2097577;28;20176;-72
2022/02/25 02:30:26;;;;;;;4.05;1.55;;;0.60;99.90;;;;;;2097131;28;20172;-72
2022/02/25 02:31:26;;;;;;;8.45;1.30;;;0.60;99.90;;;;;;2097336;28;20619;-72
2022/02/25 02:32:27;;;;;;;3.37;1.50;;;0.50;99.90;;;;;;2097757;28;20172;-72
2022/02/25 02:33:28;;;;;;;4.70;1.20;;;0.50;99.90;;;;;;2097182;28;20626;-72
2022/02/25 02:34:28;;;;;;;2.77;1.20;;;0.50;99.90;;;;;;2097104;28;20567;-72
2022/02/25 02:35:29;;;;;;;4.23;1.20;;;0.50;99.90;;;;;;2096804;28;20179;-72
2022/02/25 02:36:30;;;;;;;4.00;1.17;;;0.50;99.90;;;;;;2088907;28;20176;-72
2022/02/25 02:37:31;;;;;;;1.20;1.10;;;0.50;99.90;;;;;;2097668;28;20171;-73
2022/02/25 02:38:32;;;;;;;4.07;1.50;;;0.60;99.90;;;;;;2097168;28;20565;-72
2022/02/25 02:39:34;;;;;;;2.73;1.47;;;0.60;99.90;;;;;;2089069;28;20628;-72
2022/02/25 02:40:34;;;;;;;1.40;1.00;;;0.60;99.90;;;;;;2089080;28;20270;-72
2022/02/25 02:41:36;;;;;;;3.37;1.10;;;0.50;99.90;;;;;;2097288;28;20198;-72
2022/02/25 02:42:36;;;;;;;4.05;1.55;;;0.60;99.90;;;;;;2105337;28;20262;-73
2022/02/25 02:43:37;;;;;;;6.97;1.27;;;0.60;99.90;;;;;;2097074;28;20654;-72
2022/02/25 02:44:38;;;;;;;2.90;1.13;;;0.60;99.90;;;;;;2088872;28;20180;-71
2022/02/25 02:45:40;;;;;;;2.23;1.10;;;0.60;99.90;;;;;;2096545;28;20180;-72
2022/02/25 02:46:41;;;;;;;4.55;1.10;;;0.60;99.90;;;;;;2096878;28;20203;-72
2022/02/25 02:47:43;;;;;;;2.85;1.20;;;0.50;99.90;;;;;;2088998;28;20177;-72
2022/02/25 02:48:44;;;;;;;4.38;1.40;;;0.50;99.90;;;;;;2096931;28;20183;-73
2022/02/25 02:49:44;;;;;;;5.60;1.57;;;0.50;99.90;;;;;;2097184;28;20180;-72
2022/02/25 02:50:45;;;;;;;1.87;1.10;;;0.50;99.90;;;;;;2088978;28;20181;-72
2022/02/25 02:51:47;;;;;;;3.43;1.67;;;0.40;99.90;;;;;;2088993;28;20181;-72
2022/02/25 02:52:48;;;;;;;4.90;1.52;;;0.40;99.90;;;;;;2097033;28;20183;-72
2022/02/25 02:53:48;;;;;;;5.10;1.60;;;0.30;99.90;;;;;;2097618;28;20656;-72
2022/02/25 02:54:49;;;;;;;4.23;1.70;;;0.40;99.90;;;;;;2097097;28;20603;-72
2022/02/25 02:55:50;;;;;;;6.77;1.47;;;0.40;99.90;;;;;;2096616;28;20187;-73
2022/02/25 02:56:50;;;;;;;4.07;1.40;;;0.40;99.90;;;;;;2097735;28;20238;-73
2022/02/25 02:57:51;;;;;;;1.83;1.30;;;0.40;99.90;;;;;;2097680;28;20175;-72
2022/02/25 02:58:56;;;;;;;4.90;1.30;;;0.40;99.90;;;;;;2097726;28;20191;-72
2022/02/25 02:59:56;;;;;;;3.65;1.23;;;0.50;99.90;;;;;;2097044;28;20605;-72
2022/02/25 03:00:58;;;;;;;2.93;1.13;;;0.50;99.90;;;;;;2089282;28;20184;-72
2022/02/25 03:01:58;;;;;;;3.38;1.55;;;0.50;99.90;;;;;;2097092;28;20651;-72
2022/02/25 03:02:59;;;;;;;1.87;1.43;;;0.50;99.90;;;;;;2097604;28;20176;-73
2022/02/25 03:04:00;;;;;;;3.60;1.33;;;0.50;99.90;;;;;;2097674;28;20172;-72
2022/02/25 03:05:01;;;;;;;4.35;1.48;;;0.40;99.90;;;;;;2097410;28;20573;-72
2022/02/25 03:06:02;;;;;;;2.87;1.40;;;0.40;99.90;;;;;;2096971;28;20194;-72
2022/02/25 03:07:02;;;;;;;3.90;1.90;;;0.40;99.90;;;;;;2097070;28;20200;-72
2022/02/25 03:08:04;;;;;;;3.10;1.70;;;0.40;99.90;;;;;;2096720;28;20194;-73
2022/02/25 03:09:05;;;;;;;5.28;1.27;;;0.30;99.90;;;;;;2097024;28;20631;-72
2022/02/25 03:10:06;;;;;;;3.80;1.50;;;0.20;99.90;;;;;;2088257;28;20176;-72
2022/02/25 03:11:07;;;;;;;5.70;1.50;;;0.10;99.90;;;;;;2097100;28;20172;-72
2022/02/25 03:12:08;;;;;;;4.80;1.43;;;0.10;99.90;;;;;;2096703;28;20211;-73
2022/02/25 03:13:10;;;;;;;4.57;1.30;;;0.10;99.90;;;;;;2097010;28;20250;-72
2022/02/25 03:14:11;;;;;;;4.18;1.70;;;0.00;99.90;;;;;;2096661;28;20680;-72
2022/02/25 03:15:13;;;;;;;3.17;1.40;;;0.10;99.90;;;;;;2096250;28;20174;-72
2022/02/25 03:16:14;;;;;;;3.10;1.08;;;0.10;99.90;;;;;;2096782;28;20168;-72
2022/02/25 03:17:15;;;;;;;7.43;1.80;;;0.10;99.90;;;;;;2096963;28;20176;-73
2022/02/25 03:18:16;;;;;;;2.17;1.23;;;0.10;99.90;;;;;;2096746;28;20907;-72
2022/02/25 03:19:17;;;;;;;3.43;1.50;;;0.10;99.90;;;;;;2096795;28;20259;-72
2022/02/25 03:20:17;;;;;;;4.93;1.50;;;0.10;99.90;;;;;;2088438;28;20164;-72
2022/02/25 03:21:18;;;;;;;3.87;1.73;;;0.00;99.90;;;;;;2080502;28;20798;-72
2022/02/25 03:22:19;;;;;;;4.73;1.20;;;-0.10;99.90;;;;;;2088498;28;20160;-72
2022/02/25 03:23:20;;;;;;;5.90;1.30;;;-0.10;99.90;;;;;;2088508;28;20207;-72
2022/02/25 03:24:20;;;;;;;4.77;1.73;;;0.00;99.90;;;;;;2088530;28;20180;-72
2022/02/25 03:25:22;;;;;;;3.43;1.27;;;-0.10;99.90;;;;;;2096271;28;20187;-72
2022/02/25 03:26:23;;;;;;;3.05;1.23;;;0.00;99.90;;;;;;2096085;28;20175;-72
2022/02/25 03:27:24;;;;;;;4.27;1.43;;;0.00;99.90;;;;;;2088786;28;20548;-72
2022/02/25 03:28:24;;;;;;;4.88;1.40;;;-0.10;99.90;;;;;;2088349;28;20172;-73
2022/02/25 03:29:25;;;;;;;5.47;1.40;;;0.00;99.90;;;;;;2096815;28;20180;-73
2022/02/25 03:30:26;;;;;;;4.93;1.40;;;-0.10;99.90;;;;;;2095336;28;20164;-72
2022/02/25 03:31:26;;;;;;;3.30;1.07;;;-0.10;99.90;;;;;;2088489;28;20545;-72
2022/02/25 03:32:27;;;;;;;2.47;1.23;;;-0.20;99.90;;;;;;2088464;28;20177;-72
2022/02/25 03:33:28;;;;;;;4.20;0.90;;;-0.20;99.90;;;;;;2096872;28;20171;-72
2022/02/25 03:34:29;;;;;;;7.82;2.67;;;-0.20;99.90;;;;;;2097540;28;20904;-72
2022/02/25 03:35:32;;;;;;;4.87;1.97;;;-0.20;99.90;;;;;;2096921;28;20236;-72
2022/02/25 03:36:32;;;;;;;2.10;1.20;;;-0.20;99.90;;;;;;2097201;28;20190;-73
2022/02/25 03:37:33;;;;;;;4.97;1.20;;;-0.30;99.90;;;;;;2097358;28;20180;-72
2022/02/25 03:38:33;;;;;;;1.33;1.10;;;-0.30;99.90;;;;;;2097413;28;20678;-73
2022/02/25 03:39:34;;;;;;;2.17;1.07;;;-0.30;99.90;;;;;;2097501;28;20183;-72
2022/02/25 03:40:35;;;;;;;4.50;1.20;;;-0.30;99.90;;;;;;2096472;28;20228;-72
2022/02/25 03:41:36;;;;;;;8.27;1.40;;;-0.20;99.90;;;;;;2088363;28;20179;-72
2022/02/25 03:42:37;;;;;;;3.20;1.00;;;-0.30;99.90;;;;;;2088180;28;20184;-72
2022/02/25 03:43:38;;;;;;;4.38;1.02;;;-0.30;99.90;;;;;;2096734;28;20249;-72
2022/02/25 03:44:39;;;;;;;3.33;1.00;;;-0.40;99.90;;;;;;2096745;28;20260;-73
2022/02/25 03:45:39;;;;;;;3.23;1.10;;;-0.40;99.90;;;;;;2087626;28;20663;-72
2022/02/25 03:46:40;;;;;;;2.60;1.13;;;-0.30;99.90;;;;;;2096733;28;20256;-72
2022/02/25 03:47:41;;;;;;;4.00;1.10;;;-0.30;99.90;;;;;;2096639;28;20156;-73
2022/02/25 03:48:42;;;;;;;4.13;1.40;;;-0.40;99.90;;;;;;2088671;28;20184;-73
2022/02/25 03:49:43;;;;;;;2.23;1.10;;;-0.40;99.90;;;;;;2088347;28;20434;-72
2022/02/25 03:50:44;;;;;;;4.05;1.42;;;-0.40;99.90;;;;;;2096959;28;20951;-73
2022/02/25 03:51:45;;;;;;;4.43;1.10;;;-0.40;99.90;;;;;;2097475;28;20215;-73
2022/02/25 03:52:45;;;;;;;5.60;1.20;;;-0.40;99.90;;;;;;2096793;28;20782;-73
2022/02/25 03:53:46;;;;;;;4.00;1.07;;;-0.40;99.90;;;;;;2088378;28;20229;-73
2022/02/25 03:54:47;;;;;;;3.83;1.60;;;-0.40;99.90;;;;;;2088543;28;20187;-72
2022/02/25 03:55:48;;;;;;;3.30;1.40;;;-0.50;99.90;;;;;;2096064;28;20422;-72
2022/02/25 03:56:49;;;;;;;5.63;1.13;;;-0.40;99.90;;;;;;2097277;28;20219;-73
2022/02/25 03:57:49;;;;;;;3.10;1.30;;;-0.40;99.90;;;;;;2096543;28;20262;-73
2022/02/25 03:58:50;;;;;;;4.40;1.00;;;-0.40;99.90;;;;;;2096661;28;20222;-72
2022/02/25 03:59:51;;;;;;;3.33;1.10;;;-0.50;99.90;;;;;;2097172;28;20179;-73
2022/02/25 04:00:51;;;;;;;6.33;1.60;;;-0.50;99.90;;;;;;2096715;28;20199;-73
2022/02/25 04:01:52;;;;;;;7.23;1.60;;;-0.40;99.90;;;;;;2088382;28;20176;-73
2022/02/25 04:02:53;;;;;;;2.10;1.17;;;-0.40;99.90;;;;;;2088444;28;20179;-72
2022/02/25 04:03:54;;;;;;;3.72;1.10;;;-0.50;99.90;;;;;;2096810;28;20176;-72
2022/02/25 04:04:54;;;;;;;5.43;0.93;;;-0.50;99.80;;;;;;2096791;28;20282;-72
2022/02/25 04:05:55;;;;;;;3.00;1.80;;;-0.60;99.90;;;;;;2095997;28;20182;-73
2022/02/25 04:06:56;;;;;;;5.77;1.30;;;-0.60;99.90;;;;;;2096740;28;20565;-73
2022/02/25 04:07:56;;;;;;;4.00;1.30;;;-0.60;99.90;;;;;;2096681;28;20180;-73
2022/02/25 04:08:57;;;;;;;7.80;1.50;;;-0.60;99.90;;;;;;2097416;28;20179;-72
2022/02/25 04:09:58;;;;;;;4.40;1.20;;;-0.60;99.90;;;;;;2096713;28;20959;-74
2022/02/25 04:10:59;;;;;;;8.03;1.13;;;-0.60;99.90;;;;;;2094931;28;20559;-72
2022/02/25 04:12:02;;;;;;;3.43;1.17;;;-0.70;99.90;;;;;;2088535;28;20183;-73
2022/02/25 04:13:04;;;;;;;3.40;1.20;;;-0.70;99.90;;;;;;2080499;28;20175;-72
2022/02/25 04:14:05;;;;;;;7.95;2.22;;;-0.80;99.90;;;;;;2080495;28;20180;-73
2022/02/25 04:15:08;;;;;;;6.18;1.65;;;-0.90;99.90;;;;;;2088266;28;20227;-72
2022/02/25 04:16:09;;;;;;;2.75;1.38;;;-0.90;99.90;;;;;;2088105;28;20238;-72
2022/02/25 04:17:10;;;;;;;3.43;1.47;;;-0.90;99.90;;;;;;2079853;28;20231;-73
2022/02/25 04:18:10;;;;;;;6.10;1.40;;;-1.00;99.90;;;;;;2079679;28;20186;-73
2022/02/25 04:19:11;;;;;;;3.27;1.10;;;-1.00;99.90;;;;;;2087958;28;20186;-73
2022/02/25 04:20:12;;;;;;;5.60;1.90;;;-1.10;99.90;;;;;;2087845;28;20165;-72
2022/02/25 04:21:15;;;;;;;3.70;1.33;;;-1.10;99.90;;;;;;2079700;28;20414;-72
2022/02/25 04:22:16;;;;;;;4.15;1.77;;;-1.10;99.90;;;;;;2092708;28;20223;-72
2022/02/25 04:23:17;;;;;;;3.80;1.33;;;-1.10;99.90;;;;;;2096970;28;20900;-72
2022/02/25 04:24:17;;;;;;;2.83;1.20;;;-1.20;99.90;;;;;;2096041;28;20179;-73
2022/02/25 04:25:18;;;;;;;3.60;1.50;;;-1.20;99.90;;;;;;2095623;28;20169;-72
2022/02/25 04:26:20;;;;;;;3.57;1.40;;;-1.30;99.90;;;;;;2096778;28;20196;-72
2022/02/25 04:27:21;;;;;;;3.53;1.23;;;-1.30;99.90;;;;;;2096254;28;20611;-73
2022/02/25 04:28:21;;;;;;;2.88;1.25;;;-1.30;99.90;;;;;;2096331;28;20183;-73
2022/02/25 04:29:23;;;;;;;2.77;1.03;;;-1.30;99.90;;;;;;2096277;28;20182;-72
2022/02/25 04:30:25;;;;;;;4.95;1.35;;;-1.30;99.90;;;;;;2096307;28;20204;-73
2022/02/25 04:31:26;;;;;;;4.85;1.40;;;-1.30;99.90;;;;;;2096793;28;20182;-72
2022/02/25 04:32:26;;;;;;;3.30;1.30;;;-1.30;99.90;;;;;;2096865;28;20234;-72
2022/02/25 04:33:27;;;;;;;8.73;1.20;;;-1.40;99.90;;;;;;2096176;28;20178;-73
2022/02/25 04:34:28;;;;;;;1.40;0.90;;;-1.40;99.90;;;;;;2096259;28;20201;-72
2022/02/25 04:35:29;;;;;;;2.90;1.10;;;-1.40;99.90;;;;;;2095351;28;20225;-73
2022/02/25 04:36:30;;;;;;;2.38;1.20;;;-1.50;99.90;;;;;;2088102;28;20263;-72
2022/02/25 04:37:30;;;;;;;2.40;1.27;;;-1.40;99.90;;;;;;2088417;28;20175;-73
2022/02/25 04:38:31;;;;;;;2.73;1.80;;;-1.40;99.90;;;;;;2097643;28;21260;-73
2022/02/25 04:39:32;;;;;;;3.43;1.67;;;-1.40;99.90;;;;;;2098258;28;20241;-72
2022/02/25 04:40:33;;;;;;;1.87;1.30;;;-1.40;99.90;;;;;;2097689;28;20170;-73
2022/02/25 04:41:33;;;;;;;3.17;1.10;;;-1.40;99.90;;;;;;2097537;28;20187;-72
2022/02/25 04:42:34;;;;;;;6.40;1.50;;;-1.40;99.90;;;;;;2098366;28;20545;-72
2022/02/25 04:43:35;;;;;;;7.50;1.37;;;-1.40;99.90;;;;;;2098222;28;20199;-73
2022/02/25 04:44:35;;;;;;;2.37;1.10;;;-1.40;99.90;;;;;;2098278;28;20767;-73
2022/02/25 04:45:36;;;;;;;10.53;1.57;;;-1.40;99.90;;;;;;2097502;28;20232;-72
2022/02/25 04:46:39;;;;;;;2.60;1.03;;;-1.30;99.90;;;;;;2097450;28;20187;-72
2022/02/25 04:47:41;;;;;;;4.88;1.40;;;-1.40;99.90;;;;;;2089525;28;20698;-73
2022/02/25 04:48:41;;;;;;;3.15;1.38;;;-1.40;99.90;;;;;;2097631;28;20189;-72
2022/02/25 04:49:42;;;;;;;4.40;1.23;;;-1.30;99.90;;;;;;2089273;28;20187;-72
2022/02/25 04:50:43;;;;;;;5.80;1.97;;;-1.30;99.90;;;;;;2097640;28;20175;-72
2022/02/25 04:51:44;;;;;;;5.17;1.27;;;-1.30;99.90;;;;;;2097396;28;20694;-72
2022/02/25 04:52:45;;;;;;;2.95;0.98;;;-1.20;99.90;;;;;;2097565;28;20179;-73
2022/02/25 04:53:46;;;;;;;4.83;1.20;;;-1.10;99.90;;;;;;2097472;28;20187;-72
2022/02/25 04:54:47;;;;;;;2.33;1.10;;;-1.10;99.90;;;;;;2080965;28;20937;-73
2022/02/25 04:55:47;;;;;;;2.10;1.20;;;-1.10;99.90;;;;;;2088636;28;20278;-73
2022/02/25 04:56:48;;;;;;;4.40;1.67;;;-1.10;99.90;;;;;;2097405;28;20195;-72
2022/02/25 04:57:49;;;;;;;3.80;1.33;;;-1.00;99.90;;;;;;2097439;28;20848;-72
2022/02/25 04:58:50;;;;;;;4.83;1.57;;;-0.90;99.90;;;;;;2098136;28;20203;-72
2022/02/25 04:59:51;;;;;;;8.55;2.95;;;-0.80;99.90;;;;;;2097403;28;20183;-72
2022/02/25 05:00:51;;;;;;;4.07;1.90;;;-0.70;99.90;;;;;;2089233;28;20267;-72
2022/02/25 05:01:52;;;;;;;3.37;1.50;;;-0.60;99.90;;;;;;2097383;28;20552;-72
2022/02/25 05:02:53;;;;;;;3.37;1.50;;;-0.60;99.90;;;;;;2098468;28;20203;-73
2022/02/25 05:03:53;;;;;;;3.03;1.97;;;-0.60;99.90;;;;;;2097982;28;20183;-72
2022/02/25 05:04:54;;;;;;;6.80;1.60;;;-0.50;99.90;;;;;;2097792;28;20198;-73
2022/02/25 05:05:55;;;;;;;2.40;1.50;;;-0.50;99.90;;;;;;2105762;28;20175;-73
2022/02/25 05:06:55;;;;;;;9.23;1.90;;;-0.50;99.90;;;;;;2098527;28;20204;-72
2022/02/25 05:07:58;;;;;;;3.10;1.40;;;-0.50;99.90;;;;;;2089511;28;20187;-73
2022/02/25 05:08:59;;;;;;;3.40;1.35;;;-0.50;99.90;;;;;;2081544;28;20184;-72
2022/02/25 05:10:00;;;;;;;2.57;1.60;;;-0.60;99.90;;;;;;2089913;28;20850;-72
2022/02/25 05:11:00;;;;;;;2.30;1.20;;;-0.50;99.90;;;;;;2097884;28;20167;-72
2022/02/25 05:12:01;;;;;;;3.47;1.20;;;-0.50;99.90;;;;;;2097979;28;20172;-72
2022/02/25 05:13:02;;;;;;;3.17;1.37;;;-0.50;99.90;;;;;;2098716;28;20184;-73
2022/02/25 05:14:03;;;;;;;2.50;1.20;;;-0.50;99.90;;;;;;2098610;28;20492;-73
2022/02/25 05:20:24;;;;;;;2.00;1.00;;;-0.50;99.90;;;;;;2098172;28;20184;-73
2022/02/25 05:21:25;;;;;;;4.20;2.40;;;-0.60;99.90;;;;;;2097582;28;20229;-72
2022/02/25 05:22:26;;;;;;;5.77;2.37;;;-0.60;99.90;;;;;;2089565;28;20196;-73
2022/02/25 05:23:27;;;;;;;5.88;3.10;;;-0.60;99.90;;;;;;2089504;28;20175;-72
2022/02/25 05:24:27;;;;;;;7.80;2.00;;;-0.50;99.90;;;;;;2089530;28;20541;-72
2022/02/25 05:25:30;;;;;;;5.07;1.73;;;-0.50;99.90;;;;;;2088748;28;20176;-73